HAPPY25 EFRO-EFOU

Flight info

Callsign HAPPY25
Flight time 0h 34m
Altitude 23000
Route RENVI Y86 UPEDU
Aircraft PC12/L-SDFGRY/H

Departure

Time 2026-05-07 18:22
Airport Rovaniemi Airport (EFRO)

Arrival

Time 2026-05-07 18:56
Airport Oulu Airport (EFOU)
Time Latitude Longitude Altitude Speed Heading
2026-05-07 18:11 66.56850 25.82894 658 ft 0 kts 307°
2026-05-07 18:19 66.56851 25.82893 658 ft 0 kts 304°
2026-05-07 18:19 66.56848 25.82885 658 ft 3 kts 182°
2026-05-07 18:19 66.56871 25.83031 653 ft 17 kts 72°
2026-05-07 18:20 66.56932 25.83227 647 ft 19 kts 93°
2026-05-07 18:20 66.56894 25.83305 643 ft 1 kts 175°
2026-05-07 18:20 66.56893 25.83305 643 ft 2 kts 175°
2026-05-07 18:20 66.56812 25.83334 640 ft 22 kts 172°
2026-05-07 18:21 66.56647 25.83343 634 ft 21 kts 206°
2026-05-07 18:21 66.56625 25.83305 634 ft 0 kts 216°
2026-05-07 18:21 66.56593 25.83246 633 ft 28 kts 217°
2026-05-07 18:21 66.56232 25.82561 638 ft 98 kts 218°
2026-05-07 18:22 66.55606 25.81385 953 ft 121 kts 217°
2026-05-07 18:22 66.55084 25.80589 1240 ft 138 kts 202°
2026-05-07 18:22 66.53811 25.80109 2338 ft 135 kts 191°
2026-05-07 18:22 66.52911 25.79776 3304 ft 132 kts 192°
2026-05-07 18:23 66.51949 25.79393 4023 ft 143 kts 192°
2026-05-07 18:23 66.50969 25.79000 4927 ft 143 kts 192°
2026-05-07 18:23 66.49977 25.78604 5783 ft 145 kts 192°
2026-05-07 18:23 66.48972 25.78200 6638 ft 147 kts 192°
2026-05-07 18:24 66.47953 25.77790 7467 ft 149 kts 192°
2026-05-07 18:24 66.46916 25.77373 8313 ft 152 kts 192°
2026-05-07 18:24 66.45868 25.76952 9180 ft 154 kts 192°
2026-05-07 18:24 66.44804 25.76524 10039 ft 156 kts 192°
2026-05-07 18:25 66.43739 25.76060 10832 ft 157 kts 196°
2026-05-07 18:25 66.42676 25.75354 11669 ft 159 kts 196°
2026-05-07 18:25 66.41598 25.74669 12508 ft 161 kts 196°
2026-05-07 18:25 66.40508 25.73974 13352 ft 163 kts 195°
2026-05-07 18:26 66.39398 25.73263 14172 ft 165 kts 195°
2026-05-07 18:26 66.38276 25.72546 14933 ft 168 kts 195°
2026-05-07 18:26 66.37137 25.71817 15701 ft 170 kts 195°
2026-05-07 18:26 66.35978 25.71075 16475 ft 173 kts 195°
2026-05-07 18:27 66.34800 25.70324 17257 ft 176 kts 195°
2026-05-07 18:27 66.33618 25.69571 18019 ft 180 kts 195°
2026-05-07 18:27 66.32395 25.68792 18755 ft 182 kts 194°
2026-05-07 18:27 66.31166 25.68011 19477 ft 183 kts 194°
2026-05-07 18:28 66.29920 25.67218 20155 ft 187 kts 194°
2026-05-07 18:28 66.28583 25.66369 20479 ft 211 kts 194°
2026-05-07 18:28 66.27075 25.65409 20642 ft 236 kts 194°
2026-05-07 18:28 66.25412 25.64352 20694 ft 256 kts 194°
2026-05-07 18:29 66.23641 25.63230 20739 ft 268 kts 194°
2026-05-07 18:29 66.21797 25.62067 20772 ft 275 kts 194°
2026-05-07 18:29 66.19927 25.60888 20791 ft 279 kts 194°
2026-05-07 18:29 66.18037 25.59698 20802 ft 281 kts 194°
2026-05-07 18:30 66.16140 25.58506 20833 ft 281 kts 194°
2026-05-07 18:30 66.14268 25.57331 20864 ft 281 kts 194°
2026-05-07 18:30 66.12367 25.56140 20891 ft 282 kts 194°
2026-05-07 18:30 66.10491 25.54964 21166 ft 274 kts 194°
2026-05-07 18:31 66.08653 25.53818 21503 ft 269 kts 194°
2026-05-07 18:31 66.06825 25.53098 21852 ft 265 kts 181°
2026-05-07 18:31 66.04980 25.53019 22212 ft 264 kts 181°
2026-05-07 18:31 66.03143 25.52905 22587 ft 263 kts 181°
2026-05-07 18:32 66.01311 25.52782 22954 ft 264 kts 181°
2026-05-07 18:32 65.99448 25.52671 23077 ft 272 kts 180°
2026-05-07 18:32 65.97522 25.52556 23082 ft 280 kts 180°
2026-05-07 18:32 65.95566 25.52438 23083 ft 281 kts 181°
2026-05-07 18:33 65.93637 25.52317 23086 ft 280 kts 181°
2026-05-07 18:33 65.91685 25.52198 23086 ft 280 kts 181°
2026-05-07 18:33 65.89733 25.52084 23086 ft 280 kts 181°
2026-05-07 18:33 65.87782 25.51966 23085 ft 280 kts 181°
2026-05-07 18:34 65.85825 25.51848 23086 ft 282 kts 181°
2026-05-07 18:34 65.83861 25.51730 23084 ft 283 kts 181°
2026-05-07 18:34 65.81883 25.51613 23086 ft 284 kts 181°
2026-05-07 18:34 65.79899 25.51494 22893 ft 288 kts 181°
2026-05-07 18:35 65.77903 25.51373 22526 ft 282 kts 181°
2026-05-07 18:35 65.75964 25.51257 22161 ft 277 kts 181°
2026-05-07 18:35 65.74026 25.51143 21798 ft 279 kts 181°
2026-05-07 18:35 65.72087 25.51028 21432 ft 279 kts 181°
2026-05-07 18:36 65.70172 25.50914 21069 ft 279 kts 181°
2026-05-07 18:36 65.68224 25.50797 20700 ft 280 kts 181°
2026-05-07 18:36 65.66279 25.50682 20336 ft 279 kts 181°
2026-05-07 18:36 65.64338 25.50568 19971 ft 278 kts 181°
2026-05-07 18:37 65.62406 25.50455 19610 ft 277 kts 181°
2026-05-07 18:37 65.60453 25.50339 19239 ft 278 kts 181°
2026-05-07 18:37 65.58538 25.50226 18875 ft 278 kts 181°
2026-05-07 18:37 65.56609 25.50113 18507 ft 278 kts 182°
2026-05-07 18:38 65.54678 25.49999 18103 ft 278 kts 182°
2026-05-07 18:38 65.52737 25.49886 17738 ft 279 kts 182°
2026-05-07 18:38 65.50789 25.49771 17369 ft 280 kts 182°
2026-05-07 18:38 65.48833 25.49658 16994 ft 282 kts 182°
2026-05-07 18:39 65.46870 25.49543 16620 ft 282 kts 182°
2026-05-07 18:39 65.44897 25.49427 16246 ft 283 kts 182°
2026-05-07 18:39 65.42926 25.49314 15872 ft 283 kts 182°
2026-05-07 18:39 65.40984 25.49202 15501 ft 283 kts 182°
2026-05-07 18:40 65.39013 25.49087 15124 ft 284 kts 182°
2026-05-07 18:40 65.37030 25.48972 14746 ft 285 kts 182°
2026-05-07 18:40 65.35059 25.48854 14373 ft 281 kts 182°
2026-05-07 18:40 65.33107 25.48740 14001 ft 279 kts 182°
2026-05-07 18:41 65.31165 25.48638 13602 ft 278 kts 182°
2026-05-07 18:41 65.29228 25.48527 13141 ft 277 kts 182°
2026-05-07 18:41 65.27310 25.48412 12767 ft 274 kts 182°
2026-05-07 18:41 65.25452 25.48306 12068 ft 260 kts 182°
2026-05-07 18:42 65.23792 25.48211 11996 ft 231 kts 182°
2026-05-07 18:42 65.22115 25.48116 11770 ft 249 kts 182°
2026-05-07 18:42 65.20338 25.48013 11451 ft 261 kts 182°
2026-05-07 18:42 65.18494 25.47949 11103 ft 268 kts 181°
2026-05-07 18:43 65.16631 25.47907 10744 ft 267 kts 181°
2026-05-07 18:43 65.14780 25.47754 10391 ft 265 kts 184°
2026-05-07 18:43 65.12941 25.47573 10039 ft 263 kts 182°
2026-05-07 18:43 65.11132 25.47477 9667 ft 262 kts 181°
2026-05-07 18:44 65.09352 25.48176 9308 ft 261 kts 161°
2026-05-07 18:44 65.07770 25.50180 8922 ft 250 kts 144°
2026-05-07 18:44 65.06459 25.52620 8429 ft 217 kts 141°
2026-05-07 18:44 65.05267 25.54894 8310 ft 229 kts 142°
2026-05-07 18:45 65.03967 25.57312 8048 ft 245 kts 142°
2026-05-07 18:45 65.02599 25.59833 7730 ft 253 kts 143°
2026-05-07 18:45 65.01208 25.62403 7327 ft 250 kts 143°
2026-05-07 18:45 64.99889 25.64845 6981 ft 236 kts 143°
2026-05-07 18:46 64.98591 25.67242 6461 ft 231 kts 143°
2026-05-07 18:46 64.97361 25.69510 6023 ft 221 kts 143°
2026-05-07 18:46 64.96153 25.71730 5617 ft 219 kts 143°
2026-05-07 18:46 64.95361 25.73185 5351 ft 217 kts 143°
2026-05-07 18:47 64.94174 25.75368 4944 ft 214 kts 144°
2026-05-07 18:47 64.93015 25.77496 4514 ft 206 kts 144°
2026-05-07 18:47 64.91921 25.79479 4105 ft 194 kts 148°
2026-05-07 18:47 64.90668 25.80146 3643 ft 184 kts 190°
2026-05-07 18:48 64.89491 25.79486 3234 ft 167 kts 204°
2026-05-07 18:48 64.88508 25.78174 2813 ft 160 kts 218°
2026-05-07 18:48 64.87605 25.76656 2411 ft 159 kts 216°
2026-05-07 18:48 64.86708 25.75300 2285 ft 146 kts 214°
2026-05-07 18:49 64.85868 25.74089 2282 ft 140 kts 213°
2026-05-07 18:49 64.85092 25.72747 2289 ft 138 kts 231°
2026-05-07 18:49 64.84658 25.70804 2287 ft 136 kts 256°
2026-05-07 18:49 64.84630 25.68623 2287 ft 126 kts 282°
2026-05-07 18:50 64.84952 25.66842 2289 ft 112 kts 301°
2026-05-07 18:50 64.85341 25.65347 2295 ft 106 kts 298°
2026-05-07 18:50 64.85724 25.63839 2297 ft 108 kts 299°
2026-05-07 18:50 64.86113 25.62328 2296 ft 107 kts 299°
2026-05-07 18:51 64.86490 25.60865 2260 ft 101 kts 299°
2026-05-07 18:51 64.86855 25.59432 2214 ft 105 kts 298°
2026-05-07 18:51 64.87221 25.57979 2185 ft 99 kts 299°
2026-05-07 18:51 64.87555 25.56668 2172 ft 92 kts 299°
2026-05-07 18:52 64.87900 25.55354 2145 ft 99 kts 299°
2026-05-07 18:52 64.88257 25.53990 1994 ft 95 kts 300°
2026-05-07 18:52 64.88583 25.52733 1829 ft 85 kts 299°
2026-05-07 18:52 64.88883 25.51564 1702 ft 85 kts 299°
2026-05-07 18:53 64.89187 25.50389 1552 ft 82 kts 299°
2026-05-07 18:53 64.89472 25.49279 1417 ft 77 kts 298°
2026-05-07 18:53 64.89754 25.48174 1307 ft 81 kts 298°
2026-05-07 18:53 64.90056 25.47010 1175 ft 84 kts 299°
2026-05-07 18:54 64.90353 25.45859 1033 ft 79 kts 299°
2026-05-07 18:54 64.90633 25.44761 881 ft 78 kts 300°
2026-05-07 18:54 64.90920 25.43642 758 ft 81 kts 300°
2026-05-07 18:54 64.91218 25.42487 629 ft 83 kts 301°
2026-05-07 18:55 64.91520 25.41333 468 ft 83 kts 303°
2026-05-07 18:55 64.91827 25.40178 311 ft 82 kts 304°
2026-05-07 18:55 64.92109 25.39032 180 ft 79 kts 301°
2026-05-07 18:55 64.92385 25.37941 89 ft 75 kts 301°
2026-05-07 18:56 64.92646 25.36914 44 ft 71 kts 301°
2026-05-07 18:56 64.92884 25.35977 50 ft 62 kts 301°
2026-05-07 18:56 64.93097 25.35141 54 ft 57 kts 301°
2026-05-07 18:56 64.93294 25.34360 51 ft 49 kts 301°
2026-05-07 18:57 64.93381 25.33992 56 ft 18 kts 272°
2026-05-07 18:57 64.93288 25.33796 55 ft 12 kts 202°
2026-05-07 18:57 64.93230 25.33708 53 ft 3 kts 291°
2026-05-07 18:57 64.93235 25.33660 55 ft 0 kts 283°